Time;durP1;ratioP1;P1;durP2;ratioP2;P2;SDS_P1;SDS_P2;PMS_P1;PMS_P2;Temp;Humidity;BMP_temperature;BMP_pressure;BME280_temperature;BME280_humidity;BME280_pressure;Samples;Min_cycle;Max_cycle;Signal;HPM_P1;HPM_P2
2024/02/05 00:01:54;;;;;;;0.20;0.20;;;9.10;99.90;;;;;;5023692;28;20797;-69
2024/02/05 00:04:19;;;;;;;0.35;0.13;;;9.00;99.90;;;;;;5020359;28;20265;-69
2024/02/05 00:06:45;;;;;;;0.28;0.28;;;9.00;99.90;;;;;;5029502;28;20170;-69
2024/02/05 00:09:10;;;;;;;2.17;0.50;;;9.10;99.90;;;;;;5018598;28;20029;-69
2024/02/05 00:11:36;;;;;;;1.40;0.60;;;9.10;99.90;;;;;;5025622;28;20533;-69
2024/02/05 00:14:02;;;;;;;3.28;0.70;;;9.10;99.90;;;;;;5024333;28;20056;-69
2024/02/05 00:16:28;;;;;;;0.93;0.43;;;9.10;99.90;;;;;;5028699;28;20060;-69
2024/02/05 00:18:53;;;;;;;0.52;0.32;;;9.10;99.90;;;;;;5019921;28;20420;-69
2024/02/05 00:21:19;;;;;;;0.93;0.57;;;9.10;99.90;;;;;;5022101;28;20037;-69
2024/02/05 00:23:44;;;;;;;0.85;0.52;;;9.10;99.90;;;;;;5023381;28;20112;-69
2024/02/05 00:26:10;;;;;;;1.65;0.80;;;9.20;99.90;;;;;;5029586;28;20374;-69
2024/02/05 00:28:35;;;;;;;2.65;0.77;;;9.10;99.90;;;;;;5020685;28;20034;-70
2024/02/05 00:31:01;;;;;;;3.10;1.25;;;9.20;99.90;;;;;;5022859;28;20120;-69
2024/02/05 00:33:26;;;;;;;2.72;1.02;;;9.10;99.90;;;;;;5022575;28;20061;-70
2024/02/05 00:35:51;;;;;;;1.45;0.85;;;9.10;99.90;;;;;;5023953;28;20040;-70
2024/02/05 00:38:17;;;;;;;1.73;1.38;;;9.10;99.90;;;;;;5020889;28;20049;-70
2024/02/05 00:40:44;;;;;;;1.70;0.70;;;9.10;99.90;;;;;;5016168;28;20029;-71
2024/02/05 00:43:10;;;;;;;2.45;0.98;;;9.10;99.90;;;;;;5020900;28;20091;-70
2024/02/05 00:45:36;;;;;;;7.97;1.00;;;9.00;99.90;;;;;;5022083;28;20037;-70
2024/02/05 00:48:02;;;;;;;2.20;1.30;;;9.00;99.90;;;;;;5020344;28;20025;-69
2024/02/05 00:50:27;;;;;;;6.43;1.25;;;9.00;99.90;;;;;;5019230;28;20052;-69
2024/02/05 00:52:53;;;;;;;3.50;1.15;;;9.00;99.90;;;;;;5020940;28;20033;-69
2024/02/05 00:55:18;;;;;;;1.13;0.63;;;9.00;99.90;;;;;;5018693;28;20117;-70
2024/02/05 00:57:44;;;;;;;1.63;0.85;;;9.00;99.90;;;;;;5026682;28;20029;-69
2024/02/05 01:00:10;;;;;;;1.30;0.82;;;9.00;99.90;;;;;;5026232;28;20430;-69
2024/02/05 01:02:36;;;;;;;1.13;0.80;;;9.00;99.90;;;;;;5028303;28;20120;-69
2024/02/05 01:05:03;;;;;;;2.35;0.70;;;9.00;99.90;;;;;;5020710;28;20025;-69
2024/02/05 01:07:29;;;;;;;5.20;1.08;;;9.00;99.90;;;;;;5019412;28;20021;-69
2024/02/05 01:09:55;;;;;;;1.85;1.05;;;9.00;99.90;;;;;;5020243;28;20430;-70
2024/02/05 01:12:20;;;;;;;3.40;1.25;;;9.00;99.90;;;;;;5027273;28;20056;-70
2024/02/05 01:14:45;;;;;;;1.95;1.00;;;9.00;99.90;;;;;;5020214;28;20029;-70
2024/02/05 01:17:11;;;;;;;2.47;1.27;;;9.00;99.90;;;;;;5018194;28;20033;-69
2024/02/05 01:19:37;;;;;;;1.65;0.93;;;9.00;99.90;;;;;;5021574;28;20033;-70
2024/02/05 01:22:04;;;;;;;2.25;1.13;;;9.00;99.90;;;;;;5021806;28;20033;-70
2024/02/05 01:24:29;;;;;;;2.25;1.00;;;9.00;99.90;;;;;;5020587;28;20459;-69
2024/02/05 01:26:55;;;;;;;3.30;1.17;;;9.00;99.90;;;;;;5005583;28;20135;-69
2024/02/05 01:29:20;;;;;;;3.70;1.67;;;9.00;99.90;;;;;;5016120;28;20542;-69
2024/02/05 01:31:47;;;;;;;4.47;1.48;;;9.00;99.90;;;;;;5029438;28;20033;-70
2024/02/05 01:34:12;;;;;;;2.90;1.02;;;9.00;99.80;;;;;;5011390;28;20132;-69
2024/02/05 01:36:38;;;;;;;7.13;1.63;;;9.00;99.70;;;;;;5022553;28;20360;-69
2024/02/05 01:39:04;;;;;;;4.32;1.52;;;8.90;99.70;;;;;;5015914;28;20140;-69
2024/02/05 01:41:30;;;;;;;7.95;1.73;;;8.90;99.60;;;;;;5031092;28;20336;-70
2024/02/05 01:43:56;;;;;;;7.97;1.55;;;9.00;99.50;;;;;;5030919;28;20033;-71
2024/02/05 01:46:22;;;;;;;3.92;1.58;;;9.00;99.10;;;;;;5026063;28;20044;-70
2024/02/05 01:48:51;;;;;;;6.90;2.47;;;9.00;99.10;;;;;;5024638;28;20038;-69
2024/02/05 01:51:19;;;;;;;3.03;2.17;;;9.00;99.00;;;;;;5031879;28;20116;-70
2024/02/05 01:53:44;;;;;;;2.78;1.55;;;8.90;99.20;;;;;;5026624;28;20380;-69
2024/02/05 01:56:10;;;;;;;5.65;1.58;;;8.90;99.20;;;;;;5034179;28;20041;-69
2024/02/05 01:58:37;;;;;;;2.13;1.02;;;9.00;99.10;;;;;;5026261;28;20368;-70
2024/02/05 02:01:06;;;;;;;3.40;1.67;;;8.90;99.10;;;;;;5020042;28;20052;-69
2024/02/05 02:03:32;;;;;;;4.82;1.80;;;8.90;99.20;;;;;;5024969;28;20476;-71
2024/02/05 02:05:58;;;;;;;6.65;2.28;;;8.90;99.20;;;;;;5005027;28;20056;-70
2024/02/05 02:08:26;;;;;;;3.90;1.40;;;8.90;99.10;;;;;;5008018;28;20187;-70
2024/02/05 02:10:51;;;;;;;7.22;2.15;;;8.90;99.10;;;;;;5025053;28;20088;-69
2024/02/05 02:13:17;;;;;;;6.85;1.45;;;8.90;99.10;;;;;;5027042;28;20034;-70
2024/02/05 02:15:44;;;;;;;3.00;1.40;;;8.90;99.20;;;;;;5024978;28;20041;-70
2024/02/05 02:18:11;;;;;;;3.40;1.50;;;8.80;99.20;;;;;;5027728;28;20041;-70
2024/02/05 02:20:44;;;;;;;2.42;1.42;;;8.80;99.30;;;;;;5022953;28;20075;-70
2024/02/05 02:23:22;;;;;;;5.93;2.22;;;8.80;99.10;;;;;;5022352;28;20041;-70
2024/02/05 02:25:49;;;;;;;3.08;1.45;;;8.80;99.30;;;;;;5027251;28;20028;-69
2024/02/05 02:28:15;;;;;;;3.08;1.58;;;8.80;99.40;;;;;;5030347;28;20060;-70
2024/02/05 02:30:41;;;;;;;1.95;1.13;;;8.80;99.40;;;;;;5027667;28;20098;-70
2024/02/05 02:33:35;;;;;;;5.07;1.35;;;8.80;99.20;;;;;;5028293;28;20121;-69
2024/02/05 02:36:04;;;;;;;3.38;1.50;;;8.70;99.40;;;;;;5022031;28;20080;-70
2024/02/05 02:38:35;;;;;;;5.43;2.45;;;8.80;99.30;;;;;;5021763;28;20034;-69
2024/02/05 02:41:06;;;;;;;2.25;1.38;;;8.70;99.30;;;;;;5025113;28;20061;-69
2024/02/05 02:43:35;;;;;;;8.15;1.67;;;8.80;99.40;;;;;;5017780;28;20042;-70
2024/02/05 02:46:03;;;;;;;3.78;1.67;;;8.80;99.30;;;;;;5026090;28;20136;-70
2024/02/05 02:48:28;;;;;;;4.28;1.95;;;8.70;99.50;;;;;;5026048;28;20361;-70
2024/02/05 02:50:54;;;;;;;5.90;2.20;;;8.70;99.40;;;;;;5019795;28;20045;-70
2024/02/05 02:53:19;;;;;;;5.30;1.80;;;8.70;99.30;;;;;;5017088;28;20045;-69
2024/02/05 02:55:45;;;;;;;6.70;2.60;;;8.80;99.20;;;;;;5024524;28;20041;-70
2024/02/05 02:58:10;;;;;;;6.28;1.50;;;8.70;99.30;;;;;;5027761;28;20435;-69
2024/02/05 03:00:36;;;;;;;9.52;2.03;;;8.70;99.30;;;;;;5024140;28;20353;-69
2024/02/05 03:03:01;;;;;;;5.45;1.48;;;8.70;99.10;;;;;;5025265;28;20029;-69
2024/02/05 03:05:27;;;;;;;4.38;1.95;;;8.80;99.10;;;;;;5029336;28;20188;-70
2024/02/05 03:07:52;;;;;;;5.07;2.22;;;8.70;99.30;;;;;;5020794;28;20032;-69
2024/02/05 03:10:18;;;;;;;5.35;1.85;;;8.70;99.30;;;;;;5024297;28;20144;-70
2024/02/05 03:12:43;;;;;;;4.93;2.05;;;8.70;99.30;;;;;;5018450;28;21928;-71
2024/02/05 03:15:09;;;;;;;2.30;1.23;;;8.70;99.50;;;;;;5018852;28;20049;-70
2024/02/05 03:17:34;;;;;;;3.95;2.17;;;8.60;99.60;;;;;;5025735;28;20037;-70
2024/02/05 03:20:00;;;;;;;5.70;1.75;;;8.70;99.60;;;;;;5023917;28;20460;-69
2024/02/05 03:22:25;;;;;;;3.58;1.85;;;8.60;99.70;;;;;;5020652;28;20030;-70
2024/02/05 03:24:52;;;;;;;6.93;2.28;;;8.60;99.80;;;;;;5022866;28;20037;-69
2024/02/05 03:27:17;;;;;;;2.88;1.58;;;8.60;99.80;;;;;;5022422;28;20037;-69
2024/02/05 03:29:42;;;;;;;5.07;1.85;;;8.60;99.90;;;;;;5020569;28;21626;-69
2024/02/05 03:32:08;;;;;;;3.42;1.27;;;8.50;99.90;;;;;;5024274;28;20161;-69
2024/02/05 03:34:34;;;;;;;4.45;1.85;;;8.50;99.90;;;;;;5021232;28;20352;-69
2024/02/05 03:37:00;;;;;;;3.28;1.48;;;8.50;99.90;;;;;;5022869;28;20044;-70
2024/02/05 03:39:26;;;;;;;4.30;1.83;;;8.50;99.90;;;;;;5014991;28;20503;-70
2024/02/05 03:41:52;;;;;;;5.32;2.53;;;8.50;99.90;;;;;;5024778;28;20026;-69
2024/02/05 03:44:17;;;;;;;5.22;1.60;;;8.40;99.90;;;;;;5023228;28;20132;-69
2024/02/05 03:46:43;;;;;;;5.35;1.75;;;8.40;99.90;;;;;;5020616;28;20202;-69
2024/02/05 03:49:08;;;;;;;6.75;1.15;;;8.40;99.90;;;;;;5019447;28;20148;-69
2024/02/05 03:51:34;;;;;;;5.07;1.52;;;8.40;99.90;;;;;;5026756;28;20037;-70
2024/02/05 03:54:01;;;;;;;2.67;1.00;;;8.50;99.90;;;;;;5025111;28;20495;-69
2024/02/05 03:56:26;;;;;;;3.50;1.83;;;8.40;99.90;;;;;;5023313;28;20041;-70
2024/02/05 03:58:52;;;;;;;3.22;1.25;;;8.40;99.90;;;;;;5025974;28;20037;-69
2024/02/05 04:01:17;;;;;;;2.00;1.23;;;8.40;99.90;;;;;;5023639;28;20034;-70
2024/02/05 04:03:43;;;;;;;1.52;0.85;;;8.40;99.90;;;;;;5014968;28;20041;-70
2024/02/05 04:06:09;;;;;;;2.45;1.10;;;8.40;99.90;;;;;;5023307;28;20360;-70
2024/02/05 04:08:34;;;;;;;2.85;1.17;;;8.40;99.90;;;;;;5023007;28;20034;-70
2024/02/05 04:11:00;;;;;;;2.83;1.45;;;8.40;99.90;;;;;;5025238;28;20029;-69
2024/02/05 04:13:25;;;;;;;4.72;1.10;;;8.40;99.90;;;;;;5022668;28;20045;-69
2024/02/05 04:15:51;;;;;;;3.33;1.02;;;8.40;99.90;;;;;;5027406;28;20076;-70
2024/02/05 04:18:17;;;;;;;9.32;1.95;;;8.40;99.90;;;;;;5024927;28;20139;-70
2024/02/05 04:20:42;;;;;;;2.10;1.08;;;8.40;99.90;;;;;;5020003;28;20140;-70
2024/02/05 04:23:09;;;;;;;2.55;1.83;;;8.40;99.90;;;;;;5023810;28;20099;-69
2024/02/05 04:25:35;;;;;;;4.93;1.38;;;8.40;99.90;;;;;;5027108;28;20333;-69
2024/02/05 04:28:02;;;;;;;6.40;1.77;;;8.40;99.90;;;;;;5024267;28;20045;-69
2024/02/05 04:30:29;;;;;;;4.78;1.55;;;8.40;99.90;;;;;;5023603;28;20033;-69
2024/02/05 04:32:58;;;;;;;4.88;2.05;;;8.40;99.90;;;;;;5015605;28;20033;-69
2024/02/05 04:35:23;;;;;;;3.72;1.63;;;8.40;99.90;;;;;;5020703;28;20069;-69
2024/02/05 04:37:49;;;;;;;3.45;1.70;;;8.50;99.90;;;;;;5020289;28;20025;-69
2024/02/05 04:40:14;;;;;;;6.88;1.88;;;8.50;99.90;;;;;;5019183;28;20029;-70
2024/02/05 04:42:40;;;;;;;4.30;1.48;;;8.50;99.90;;;;;;5023360;28;20118;-69
2024/02/05 04:45:06;;;;;;;7.78;1.80;;;8.50;99.90;;;;;;5019009;28;20166;-70
2024/02/05 04:47:31;;;;;;;1.85;0.93;;;8.50;99.90;;;;;;5022282;28;20334;-69
2024/02/05 04:49:57;;;;;;;1.23;0.77;;;8.50;99.90;;;;;;5018261;28;20041;-69
2024/02/05 04:52:22;;;;;;;3.13;0.90;;;8.50;99.90;;;;;;5025539;28;20367;-70
2024/02/05 04:54:48;;;;;;;2.67;1.05;;;8.50;99.90;;;;;;5022179;28;20045;-69
2024/02/05 04:57:13;;;;;;;0.95;0.68;;;8.60;99.90;;;;;;5022047;28;20128;-69
2024/02/05 04:59:39;;;;;;;4.93;1.27;;;8.60;99.90;;;;;;5025256;28;20048;-69
2024/02/05 05:02:04;;;;;;;2.97;1.10;;;8.60;99.90;;;;;;5020845;28;20045;-69
2024/02/05 05:04:30;;;;;;;1.58;0.55;;;8.50;99.90;;;;;;5019413;28;20531;-70
2024/02/05 05:06:55;;;;;;;3.78;0.80;;;8.50;99.90;;;;;;5024130;28;20071;-69
2024/02/05 05:09:21;;;;;;;2.22;0.82;;;8.60;99.90;;;;;;5023424;28;20509;-69
2024/02/05 05:11:47;;;;;;;2.78;1.48;;;8.60;99.90;;;;;;5021745;28;20040;-69
2024/02/05 05:14:13;;;;;;;2.40;0.93;;;8.50;99.90;;;;;;5024126;28;20029;-69
2024/02/05 05:16:38;;;;;;;1.08;0.77;;;8.50;99.90;;;;;;5017764;28;20475;-69
2024/02/05 05:19:04;;;;;;;4.43;1.40;;;8.50;99.90;;;;;;5024545;28;20051;-69
2024/02/05 05:21:30;;;;;;;3.22;1.55;;;8.50;99.90;;;;;;5028587;28;20042;-69
2024/02/05 05:23:56;;;;;;;5.78;1.55;;;8.50;99.90;;;;;;5029004;28;20388;-70
2024/02/05 05:26:23;;;;;;;3.55;1.20;;;8.50;99.90;;;;;;5022151;28;20196;-69
2024/02/05 05:28:51;;;;;;;7.50;1.58;;;8.50;99.90;;;;;;5027094;28;20055;-68
2024/02/05 05:31:17;;;;;;;4.20;1.55;;;8.50;99.90;;;;;;5031661;28;20112;-69
2024/02/05 05:33:44;;;;;;;5.00;1.50;;;8.50;99.90;;;;;;5030341;28;20628;-68
2024/02/05 05:36:10;;;;;;;2.85;1.55;;;8.50;99.90;;;;;;5024311;28;20561;-68
2024/02/05 05:38:35;;;;;;;3.90;2.13;;;8.40;99.90;;;;;;5025392;28;20061;-68
2024/02/05 05:41:01;;;;;;;8.60;2.10;;;8.40;99.90;;;;;;5031725;28;20104;-68
2024/02/05 05:43:26;;;;;;;5.50;2.40;;;8.40;99.90;;;;;;5028452;28;20115;-68
2024/02/05 05:45:52;;;;;;;4.78;2.00;;;8.40;99.90;;;;;;5025771;28;20030;-68
2024/02/05 05:48:17;;;;;;;4.05;1.55;;;8.40;99.90;;;;;;5027470;28;20059;-71
2024/02/05 05:50:44;;;;;;;5.13;1.85;;;8.40;99.90;;;;;;5021969;28;20037;-75
2024/02/05 05:53:09;;;;;;;6.57;2.10;;;8.40;99.90;;;;;;5008916;28;20030;-68
2024/02/05 05:55:35;;;;;;;6.38;1.92;;;8.40;99.90;;;;;;5026627;28;20057;-68
2024/02/05 05:58:00;;;;;;;6.65;2.25;;;8.30;99.90;;;;;;5024513;28;20041;-74
2024/02/05 06:00:26;;;;;;;6.53;2.33;;;8.30;99.90;;;;;;5024580;28;20075;-67
2024/02/05 06:02:51;;;;;;;8.57;2.25;;;8.30;99.90;;;;;;5031587;28;20164;-67
2024/02/05 06:05:17;;;;;;;10.10;2.38;;;8.30;99.90;;;;;;5020637;28;20033;-68
2024/02/05 06:07:44;;;;;;;4.60;2.30;;;8.30;99.90;;;;;;5028377;28;20052;-68
2024/02/05 06:10:10;;;;;;;8.48;3.33;;;8.30;99.90;;;;;;5025571;28;20119;-68
2024/02/05 06:12:35;;;;;;;9.57;2.67;;;8.30;99.90;;;;;;5021436;28;20168;-68
2024/02/05 06:15:01;;;;;;;9.50;2.63;;;8.30;99.90;;;;;;5030280;28;20052;-68
2024/02/05 06:17:27;;;;;;;4.53;1.88;;;8.30;99.90;;;;;;5023003;28;20045;-69
2024/02/05 06:19:53;;;;;;;7.10;2.42;;;8.30;99.90;;;;;;5019676;28;20511;-69
2024/02/05 06:22:18;;;;;;;6.93;1.75;;;8.30;99.90;;;;;;5026674;28;20116;-68
2024/02/05 06:24:44;;;;;;;6.43;1.85;;;8.30;99.90;;;;;;5022594;28;20501;-67
2024/02/05 06:27:10;;;;;;;8.80;2.78;;;8.30;99.90;;;;;;5027720;28;20021;-69
2024/02/05 06:29:36;;;;;;;6.03;2.38;;;8.30;99.90;;;;;;5026530;28;20017;-70
2024/02/05 06:32:01;;;;;;;5.00;2.22;;;8.20;99.90;;;;;;5027714;28;20051;-73
2024/02/05 06:34:27;;;;;;;5.88;2.55;;;8.20;99.90;;;;;;5018949;28;20354;-70
2024/02/05 06:36:52;;;;;;;5.60;2.08;;;8.30;99.90;;;;;;5025266;28;20061;-66
2024/02/05 06:39:17;;;;;;;8.05;2.40;;;8.40;99.80;;;;;;5031388;28;20463;-67
2024/02/05 06:41:43;;;;;;;5.70;3.05;;;8.40;99.90;;;;;;5026098;28;20041;-66
2024/02/05 06:44:08;;;;;;;6.25;2.55;;;8.30;99.90;;;;;;5029558;28;20084;-67
2024/02/05 06:46:34;;;;;;;5.80;2.22;;;8.30;99.90;;;;;;5012482;28;20060;-68
2024/02/05 06:48:59;;;;;;;5.50;2.22;;;8.30;99.90;;;;;;5027085;28;20468;-68
2024/02/05 06:51:25;;;;;;;7.88;2.42;;;8.30;99.60;;;;;;5031774;28;20049;-67
2024/02/05 06:53:50;;;;;;;9.35;2.40;;;8.40;99.50;;;;;;5030076;28;20452;-68
2024/02/05 06:56:17;;;;;;;7.95;2.58;;;8.30;99.80;;;;;;5028808;28;20044;-66
2024/02/05 06:58:43;;;;;;;6.85;3.40;;;8.30;99.90;;;;;;5028584;28;20509;-66
2024/02/05 07:01:08;;;;;;;7.72;2.67;;;8.30;99.80;;;;;;5032492;28;20080;-65
2024/02/05 07:03:34;;;;;;;13.48;2.88;;;8.30;99.90;;;;;;5034180;28;20036;-67
2024/02/05 07:06:00;;;;;;;6.60;2.22;;;8.30;99.50;;;;;;5032630;28;20368;-68
2024/02/05 07:08:25;;;;;;;8.15;3.15;;;8.40;99.10;;;;;;5019881;28;20040;-68
2024/02/05 07:10:51;;;;;;;3.60;2.17;;;8.30;99.10;;;;;;5023035;28;20101;-70
2024/02/05 07:13:16;;;;;;;6.55;2.60;;;8.30;99.10;;;;;;5030557;28;20041;-68
2024/02/05 07:15:41;;;;;;;13.35;3.17;;;8.30;99.00;;;;;;5031128;28;20149;-69
2024/02/05 07:18:07;;;;;;;9.20;3.20;;;8.30;98.90;;;;;;5026242;28;20456;-69
2024/02/05 07:20:32;;;;;;;6.45;3.15;;;8.30;98.80;;;;;;5026559;28;20104;-68
2024/02/05 07:22:58;;;;;;;5.55;2.38;;;8.40;98.20;;;;;;5031366;28;20025;-69
2024/02/05 07:25:25;;;;;;;6.15;2.92;;;8.40;97.90;;;;;;5030094;28;20061;-68
2024/02/05 07:27:50;;;;;;;8.65;2.30;;;8.50;97.50;;;;;;5035858;28;20497;-68
2024/02/05 07:30:16;;;;;;;6.78;2.22;;;8.40;97.80;;;;;;5024038;28;20033;-67
2024/02/05 07:32:42;;;;;;;5.65;2.25;;;8.40;97.70;;;;;;5039611;28;20025;-68
2024/02/05 07:35:08;;;;;;;3.80;2.03;;;8.30;97.80;;;;;;5031505;28;20120;-68
2024/02/05 07:37:33;;;;;;;9.50;3.05;;;8.40;97.70;;;;;;5034480;28;20523;-70
2024/02/05 07:40:03;;;;;;;11.40;2.95;;;8.40;97.90;;;;;;5029637;28;20041;-68
2024/02/05 07:42:28;;;;;;;7.70;3.00;;;8.40;97.50;;;;;;5030853;28;20079;-69
2024/02/05 07:44:54;;;;;;;10.35;2.40;;;8.40;97.40;;;;;;5027257;28;20037;-68
2024/02/05 07:47:19;;;;;;;16.73;3.70;;;8.50;96.80;;;;;;5031946;28;20041;-68
2024/02/05 07:49:44;;;;;;;6.50;2.15;;;8.50;96.60;;;;;;5022227;28;20034;-67
2024/02/05 07:52:10;;;;;;;9.40;2.58;;;8.50;97.10;;;;;;5028099;28;20033;-67
2024/02/05 07:54:37;;;;;;;11.70;3.28;;;8.40;96.90;;;;;;5029404;28;20029;-67
2024/02/05 07:57:03;;;;;;;9.60;3.20;;;8.50;96.60;;;;;;5025783;28;20112;-67
2024/02/05 07:59:29;;;;;;;10.43;2.58;;;8.60;96.30;;;;;;5026973;28;20044;-68
2024/02/05 08:01:55;;;;;;;5.97;2.33;;;8.60;96.00;;;;;;5025769;28;20033;-75
2024/02/05 08:04:20;;;;;;;5.00;2.10;;;8.50;96.10;;;;;;5022402;28;20367;-69
2024/02/05 08:06:46;;;;;;;5.80;2.22;;;8.50;95.90;;;;;;5024587;28;20037;-69
2024/02/05 08:09:12;;;;;;;5.68;1.98;;;8.50;96.10;;;;;;5017524;28;20095;-69
2024/02/05 08:11:38;;;;;;;3.28;1.63;;;8.50;95.70;;;;;;5022876;28;20026;-69
2024/02/05 08:14:06;;;;;;;6.10;2.63;;;8.60;95.60;;;;;;5025141;28;20328;-71
2024/02/05 08:16:32;;;;;;;9.85;3.15;;;8.60;95.70;;;;;;5024766;28;20041;-69
2024/02/05 08:18:57;;;;;;;5.03;1.92;;;8.50;95.90;;;;;;5022976;28;20429;-69
2024/02/05 08:21:23;;;;;;;6.65;2.88;;;8.50;95.60;;;;;;5027617;28;20038;-69
2024/02/05 08:23:50;;;;;;;5.32;1.83;;;8.50;95.40;;;;;;5027964;28;20119;-69
2024/02/05 08:26:17;;;;;;;4.28;1.67;;;8.50;95.70;;;;;;5023523;28;20071;-69
2024/02/05 08:28:42;;;;;;;6.30;2.35;;;8.50;95.20;;;;;;5024814;28;20438;-69
2024/02/05 08:31:08;;;;;;;10.18;2.72;;;8.60;94.90;;;;;;5026370;28;20499;-69
2024/02/05 08:33:33;;;;;;;6.00;2.15;;;8.60;95.00;;;;;;5021345;28;20469;-69
2024/02/05 08:35:59;;;;;;;6.15;2.75;;;8.60;94.70;;;;;;5016390;28;20033;-68
2024/02/05 08:38:24;;;;;;;7.00;2.50;;;8.60;94.70;;;;;;5026173;28;20452;-69
2024/02/05 08:40:50;;;;;;;9.68;2.33;;;8.60;94.80;;;;;;5024790;28;20040;-68
2024/02/05 08:43:15;;;;;;;7.60;3.10;;;8.50;95.10;;;;;;5022857;28;20041;-68
2024/02/05 08:45:41;;;;;;;9.05;2.65;;;8.60;94.80;;;;;;5025724;28;20026;-69
2024/02/05 08:48:07;;;;;;;5.85;1.70;;;8.70;94.30;;;;;;5009126;28;20060;-69
2024/02/05 08:50:36;;;;;;;7.32;2.00;;;8.60;94.40;;;;;;5022057;28;20061;-69
2024/02/05 08:53:05;;;;;;;5.47;2.75;;;8.60;94.60;;;;;;5023364;28;20151;-69
2024/02/05 08:55:30;;;;;;;8.23;2.08;;;8.70;94.20;;;;;;5025152;28;20589;-69
2024/02/05 08:57:56;;;;;;;8.75;2.60;;;8.60;94.80;;;;;;5022117;28;20139;-69
2024/02/05 09:00:22;;;;;;;6.07;2.25;;;8.50;94.90;;;;;;5017628;28;20455;-69
2024/02/05 09:02:50;;;;;;;6.05;2.33;;;8.70;94.20;;;;;;5019580;28;20092;-69
2024/02/05 09:05:16;;;;;;;7.72;2.40;;;8.60;94.70;;;;;;5013121;28;20089;-68
2024/02/05 09:07:41;;;;;;;13.07;2.75;;;8.70;94.20;;;;;;5021061;28;20077;-69
2024/02/05 09:10:07;;;;;;;8.07;2.28;;;8.70;94.10;;;;;;5022468;28;20404;-69
2024/02/05 09:12:33;;;;;;;2.90;1.38;;;8.80;93.60;;;;;;5025357;28;20030;-67
2024/02/05 09:14:59;;;;;;;9.85;2.47;;;8.70;94.00;;;;;;5031421;28;20406;-69
2024/02/05 09:17:25;;;;;;;4.90;1.80;;;8.70;93.80;;;;;;5031059;28;20045;-69
2024/02/05 09:19:50;;;;;;;10.95;1.95;;;8.70;93.60;;;;;;5001565;28;20128;-69
2024/02/05 09:22:16;;;;;;;11.05;2.25;;;8.70;93.90;;;;;;5023784;28;20520;-70
2024/02/05 09:24:41;;;;;;;5.18;1.63;;;8.70;94.10;;;;;;5004187;28;20030;-69
2024/02/05 09:27:07;;;;;;;4.68;1.75;;;8.70;93.90;;;;;;5018065;28;20464;-69
2024/02/05 09:29:32;;;;;;;4.50;1.73;;;8.70;93.90;;;;;;5028094;28;20183;-69
2024/02/05 09:31:58;;;;;;;7.22;2.72;;;8.70;93.50;;;;;;5026002;28;20037;-69
2024/02/05 09:34:24;;;;;;;10.25;2.33;;;8.80;93.40;;;;;;5021349;28;20025;-69
2024/02/05 09:36:49;;;;;;;7.97;1.70;;;8.80;93.70;;;;;;5019872;28;20045;-69
2024/02/05 09:39:15;;;;;;;8.82;1.70;;;8.80;93.40;;;;;;5020644;28;20052;-69
2024/02/05 09:41:41;;;;;;;4.88;1.70;;;8.80;93.10;;;;;;5025684;28;20276;-69
2024/02/05 09:44:08;;;;;;;5.05;2.25;;;8.80;93.00;;;;;;5026159;28;20088;-69
2024/02/05 09:46:34;;;;;;;4.28;1.58;;;8.80;93.10;;;;;;5027225;28;20033;-70
2024/02/05 09:49:02;;;;;;;5.07;1.52;;;8.80;93.40;;;;;;5019314;28;20057;-69
2024/02/05 09:51:29;;;;;;;6.97;2.47;;;8.70;93.70;;;;;;5025508;28;20120;-69
2024/02/05 09:53:56;;;;;;;3.58;2.00;;;8.80;93.00;;;;;;5020937;28;20034;-69
2024/02/05 09:56:25;;;;;;;12.43;2.88;;;8.80;93.30;;;;;;5025518;28;20053;-69
2024/02/05 09:58:54;;;;;;;5.90;1.52;;;8.80;93.20;;;;;;5022594;28;20037;-69
2024/02/05 10:01:20;;;;;;;6.70;2.35;;;8.80;93.60;;;;;;5026013;28;20037;-69
2024/02/05 10:03:47;;;;;;;4.60;2.10;;;8.80;93.30;;;;;;5023858;28;20139;-70
2024/02/05 10:06:16;;;;;;;4.43;1.90;;;8.80;92.80;;;;;;5019927;28;20093;-69
2024/02/05 10:08:43;;;;;;;4.13;1.65;;;8.80;93.20;;;;;;5021504;28;20101;-69
2024/02/05 10:11:11;;;;;;;7.47;2.10;;;8.80;93.10;;;;;;5029950;28;20253;-69
2024/02/05 10:13:36;;;;;;;8.77;3.00;;;8.80;93.00;;;;;;5033902;28;20435;-69
2024/02/05 10:16:03;;;;;;;3.33;1.50;;;8.90;92.90;;;;;;5032962;28;20141;-69
2024/02/05 10:18:28;;;;;;;4.65;2.10;;;8.80;93.20;;;;;;5034086;28;20120;-69
2024/02/05 10:20:54;;;;;;;9.27;2.58;;;8.80;93.30;;;;;;5025305;28;20424;-69
2024/02/05 10:23:19;;;;;;;6.72;2.05;;;8.70;93.30;;;;;;5032957;28;20108;-69
2024/02/05 10:25:45;;;;;;;3.72;1.48;;;8.70;93.40;;;;;;5024231;28;20030;-69
2024/02/05 10:28:10;;;;;;;6.22;2.28;;;8.80;93.00;;;;;;5028712;28;20128;-69
2024/02/05 10:30:36;;;;;;;9.80;2.88;;;8.80;93.60;;;;;;5025693;28;20036;-69
2024/02/05 10:33:03;;;;;;;5.18;1.88;;;8.70;94.00;;;;;;5027329;28;20033;-69
2024/02/05 10:35:29;;;;;;;15.20;3.97;;;8.70;93.70;;;;;;5024959;28;20053;-69
2024/02/05 10:38:10;;;;;;;6.15;2.28;;;8.70;93.50;;;;;;5028675;28;20034;-69
2024/02/05 10:40:37;;;;;;;7.00;2.13;;;8.80;93.10;;;;;;5023317;28;20029;-71
2024/02/05 10:43:04;;;;;;;4.88;1.70;;;8.70;93.20;;;;;;5031728;28;20025;-75
2024/02/05 10:45:31;;;;;;;3.58;2.17;;;8.70;93.30;;;;;;5036940;28;20025;-72
2024/02/05 10:47:56;;;;;;;3.42;1.50;;;8.80;93.20;;;;;;5043686;28;20029;-71
2024/02/05 10:50:22;;;;;;;4.13;1.33;;;8.80;93.30;;;;;;5028201;28;20483;-71
2024/02/05 10:52:48;;;;;;;4.75;1.77;;;8.70;93.30;;;;;;5024037;28;20044;-69
2024/02/05 10:55:15;;;;;;;6.72;2.00;;;8.80;93.00;;;;;;5029555;28;20025;-75
2024/02/05 10:57:42;;;;;;;4.07;1.58;;;8.80;93.10;;;;;;5032149;28;20052;-74
2024/02/05 11:00:09;;;;;;;6.97;1.85;;;8.70;93.40;;;;;;5037133;28;20029;-77
2024/02/05 11:02:49;;;;;;;4.57;2.03;;;8.80;92.90;;;;;;5024727;28;20047;-76
2024/02/05 11:05:15;;;;;;;5.65;2.38;;;8.70;93.00;;;;;;5023799;28;20087;-76
2024/02/05 11:07:52;;;;;;;3.17;1.63;;;8.70;93.30;;;;;;5027322;28;20044;-76
2024/02/05 11:10:22;;;;;;;3.30;1.92;;;8.70;93.20;;;;;;5020767;28;20191;-76
2024/02/05 11:12:54;;;;;;;3.72;1.50;;;8.80;92.70;;;;;;5022050;28;20043;-75
2024/02/05 11:15:22;;;;;;;6.18;2.05;;;8.80;92.70;;;;;;5018697;28;20103;-78
2024/02/05 11:17:50;;;;;;;5.60;2.28;;;8.70;93.00;;;;;;5015348;28;20065;-72
2024/02/05 11:20:16;;;;;;;7.15;2.42;;;8.70;93.40;;;;;;5022633;28;20033;-71
2024/02/05 11:22:44;;;;;;;3.78;1.42;;;8.60;93.40;;;;;;5028535;28;20045;-71
2024/02/05 11:25:11;;;;;;;3.95;1.92;;;8.70;93.00;;;;;;5017300;28;20096;-71
2024/02/05 11:27:36;;;;;;;4.00;1.42;;;8.70;92.90;;;;;;5025863;28;20566;-71
2024/02/05 11:30:05;;;;;;;6.22;1.75;;;8.70;93.00;;;;;;5026668;28;20223;-71
2024/02/05 11:32:34;;;;;;;7.63;2.17;;;8.70;92.80;;;;;;5028128;28;20044;-71
2024/02/05 11:34:59;;;;;;;6.50;1.67;;;8.70;92.90;;;;;;5024090;28;20444;-69
2024/02/05 11:37:27;;;;;;;4.07;2.22;;;8.70;92.70;;;;;;5026485;28;20037;-71
2024/02/05 11:39:55;;;;;;;4.97;1.60;;;8.80;92.60;;;;;;5025303;28;20117;-73
2024/02/05 11:42:20;;;;;;;9.18;2.35;;;8.70;92.70;;;;;;5024573;28;20057;-71
2024/02/05 11:44:54;;;;;;;7.90;1.55;;;8.70;92.80;;;;;;5026314;28;20091;-71
2024/02/05 11:47:21;;;;;;;5.18;2.33;;;8.70;92.30;;;;;;5024242;28;20112;-71
2024/02/05 11:49:47;;;;;;;8.30;1.92;;;8.70;92.50;;;;;;5028131;28;20044;-71
2024/02/05 11:52:16;;;;;;;3.53;2.15;;;8.70;92.60;;;;;;5029844;28;20037;-71
2024/02/05 11:54:41;;;;;;;6.38;2.10;;;8.70;92.50;;;;;;5022266;28;20097;-70
2024/02/05 11:57:07;;;;;;;8.13;2.67;;;8.80;92.20;;;;;;5025022;28;20060;-71
2024/02/05 11:59:32;;;;;;;5.18;1.77;;;8.80;92.40;;;;;;5024190;28;20442;-71
2024/02/05 12:01:58;;;;;;;7.38;2.55;;;8.70;92.60;;;;;;5026941;28;20029;-70
2024/02/05 12:04:23;;;;;;;5.80;1.48;;;8.70;92.00;;;;;;5023430;28;20087;-70
2024/02/05 12:06:50;;;;;;;3.25;1.58;;;8.70;92.20;;;;;;5025677;28;20171;-76
2024/02/05 12:09:16;;;;;;;5.38;2.28;;;8.70;92.60;;;;;;5025983;28;20032;-76
2024/02/05 12:11:42;;;;;;;2.60;1.30;;;8.70;92.80;;;;;;5030969;28;20075;-69
2024/02/05 12:14:10;;;;;;;2.80;1.50;;;8.70;92.70;;;;;;5030007;28;20423;-69
2024/02/05 12:16:36;;;;;;;8.65;2.08;;;8.60;92.70;;;;;;5029446;28;20099;-70
2024/02/05 12:19:02;;;;;;;6.18;1.77;;;8.70;92.40;;;;;;5029558;28;20037;-77
2024/02/05 12:21:31;;;;;;;6.28;1.70;;;8.70;91.90;;;;;;5011360;28;20033;-72
2024/02/05 12:23:57;;;;;;;7.82;1.98;;;8.70;92.40;;;;;;5028083;28;20146;-75
2024/02/05 12:26:23;;;;;;;3.65;1.83;;;8.60;92.50;;;;;;5026979;28;20049;-73
2024/02/05 12:28:51;;;;;;;6.40;2.03;;;8.60;92.30;;;;;;5031577;28;20035;-72
2024/02/05 12:31:20;;;;;;;5.43;2.30;;;8.60;92.40;;;;;;5025570;28;20037;-74
2024/02/05 12:33:59;;;;;;;4.03;1.83;;;8.60;92.70;;;;;;5024612;28;20057;-73
2024/02/05 12:36:36;;;;;;;6.85;2.00;;;8.60;92.40;;;;;;5021579;28;20045;-75
2024/02/05 12:39:03;;;;;;;2.80;1.38;;;8.60;92.60;;;;;;5025022;28;20491;-72
2024/02/05 12:41:29;;;;;;;5.05;1.75;;;8.60;92.40;;;;;;5020294;28;20053;-72
2024/02/05 12:43:54;;;;;;;3.40;1.50;;;8.60;92.80;;;;;;5031919;28;20029;-74
2024/02/05 12:46:20;;;;;;;5.15;1.83;;;8.60;92.50;;;;;;5023596;28;20108;-75
2024/02/05 12:48:46;;;;;;;5.72;1.80;;;8.60;92.90;;;;;;5032477;28;20048;-72
2024/02/05 12:51:12;;;;;;;5.90;2.30;;;8.60;92.60;;;;;;5024865;28;20041;-71
2024/02/05 12:53:41;;;;;;;7.10;1.50;;;8.60;92.40;;;;;;5024116;28;20424;-70